Time,TemperatureF,DewpointF,PressureIn,WindDirection,WindDirectionDegrees,WindSpeedMPH,WindSpeedGustMPH,Humidity,HourlyPrecipIn,Conditions,Clouds,dailyrainin,SoftwareType,DateUTC
2013-01-27 00:01:00,23.2,17.0,30.38,SSE,151,2.0,4.0,78,0.00,,,0.00,weatherlink.com 1.10,2013-01-27 05:01:00,
2013-01-27 00:16:00,23.6,17.0,30.37,SSE,160,2.0,8.0,77,0.00,,,0.00,weatherlink.com 1.10,2013-01-27 05:16:00,
2013-01-27 00:31:00,23.6,17.0,30.38,SSE,160,2.0,6.0,76,0.00,,,0.00,weatherlink.com 1.10,2013-01-27 05:31:00,
2013-01-27 00:46:00,23.5,17.0,30.38,SSE,155,2.0,6.0,76,0.00,,,0.00,weatherlink.com 1.10,2013-01-27 05:46:00,
2013-01-27 01:01:00,23.1,17.0,30.38,SE,135,2.0,4.0,77,0.00,,,0.00,weatherlink.com 1.10,2013-01-27 06:01:00,
2013-01-27 01:17:00,22.7,17.0,30.38,SSE,155,0.0,5.0,78,0.00,,,0.00,weatherlink.com 1.10,2013-01-27 06:17:00,
2013-01-27 01:32:00,21.9,16.0,30.38,SE,136,0.0,1.0,79,0.00,,,0.00,weatherlink.com 1.10,2013-01-27 06:32:00,
2013-01-27 01:47:00,21.8,17.0,30.37,ESE,120,1.0,2.0,80,0.00,,,0.00,weatherlink.com 1.10,2013-01-27 06:47:00,
2013-01-27 02:02:00,21.9,17.0,30.36,SSE,155,2.0,4.0,80,0.00,,,0.00,weatherlink.com 1.10,2013-01-27 07:02:00,
2013-01-27 02:17:00,22.3,17.0,30.36,SE,136,3.0,6.0,80,0.00,,,0.00,weatherlink.com 1.10,2013-01-27 07:17:00,
2013-01-27 02:32:00,22.4,17.0,30.37,SSE,148,2.0,5.0,79,0.00,,,0.00,weatherlink.com 1.10,2013-01-27 07:32:00,
2013-01-27 02:47:00,22.4,17.0,30.38,SE,143,2.0,4.0,79,0.00,,,0.00,weatherlink.com 1.10,2013-01-27 07:47:00,
2013-01-27 03:02:00,22.5,17.0,30.38,SE,145,1.0,4.0,79,0.00,,,0.00,weatherlink.com 1.10,2013-01-27 08:02:00,
2013-01-27 03:17:00,22.4,17.0,30.37,SSE,155,1.0,5.0,79,0.00,,,0.00,weatherlink.com 1.10,2013-01-27 08:17:00,
2013-01-27 03:32:00,22.3,17.0,30.37,SE,139,1.0,3.0,79,0.00,,,0.00,weatherlink.com 1.10,2013-01-27 08:32:00,
2013-01-27 03:47:00,22.1,17.0,30.36,SE,139,1.0,4.0,80,0.00,,,0.00,weatherlink.com 1.10,2013-01-27 08:47:00,
2013-01-27 04:02:00,21.9,17.0,30.36,ESE,120,4.0,4.0,80,0.00,,,0.00,weatherlink.com 1.10,2013-01-27 09:02:00,
2013-01-27 04:17:00,22.0,17.0,30.35,SSE,150,2.0,6.0,81,0.00,,,0.00,weatherlink.com 1.10,2013-01-27 09:17:00,
2013-01-27 04:32:00,21.7,17.0,30.35,ESE,115,2.0,5.0,81,0.00,,,0.00,weatherlink.com 1.10,2013-01-27 09:32:00,
2013-01-27 04:47:00,21.8,17.0,30.35,SE,142,3.0,4.0,81,0.00,,,0.00,weatherlink.com 1.10,2013-01-27 09:47:00,
2013-01-27 05:02:00,21.9,17.0,30.35,SE,132,4.0,4.0,82,0.00,,,0.00,weatherlink.com 1.10,2013-01-27 10:02:00,
2013-01-27 05:17:00,22.0,17.0,30.35,SSE,156,3.0,3.0,81,0.00,,,0.00,weatherlink.com 1.10,2013-01-27 10:17:00,
2013-01-27 05:32:00,22.0,17.0,30.34,SSE,158,2.0,4.0,82,0.00,,,0.00,weatherlink.com 1.10,2013-01-27 10:32:00,
2013-01-27 05:47:00,22.3,17.0,30.34,SE,129,3.0,8.0,81,0.00,,,0.00,weatherlink.com 1.10,2013-01-27 10:47:00,
2013-01-27 06:02:00,22.5,18.0,30.35,SSE,164,1.0,5.0,81,0.00,,,0.00,weatherlink.com 1.10,2013-01-27 11:02:00,
2013-01-27 06:17:00,22.6,18.0,30.35,SE,142,3.0,5.0,81,0.00,,,0.00,weatherlink.com 1.10,2013-01-27 11:17:00,
2013-01-27 06:33:00,22.8,18.0,30.35,SSW,195,3.0,6.0,81,0.00,,,0.00,weatherlink.com 1.10,2013-01-27 11:33:00,
2013-01-27 06:47:00,23.0,18.0,30.35,SSE,148,3.0,6.0,81,0.00,,,0.00,weatherlink.com 1.10,2013-01-27 11:47:00,
2013-01-27 07:02:00,23.0,18.0,30.35,ESE,122,3.0,7.0,81,0.00,,,0.00,weatherlink.com 1.10,2013-01-27 12:02:00,
2013-01-27 07:17:00,23.1,18.0,30.35,SE,133,1.0,5.0,81,0.00,,,0.00,weatherlink.com 1.10,2013-01-27 12:17:00,
2013-01-27 07:32:00,23.2,19.0,30.36,SE,143,3.0,7.0,82,0.00,,,0.00,weatherlink.com 1.10,2013-01-27 12:32:00,
2013-01-27 07:47:00,23.4,19.0,30.36,SE,136,4.0,8.0,82,0.00,,,0.00,weatherlink.com 1.10,2013-01-27 12:47:00,
2013-01-27 08:02:00,23.5,19.0,30.36,SSE,165,4.0,4.0,82,0.00,,,0.00,weatherlink.com 1.10,2013-01-27 13:02:00,
2013-01-27 08:17:00,23.7,19.0,30.35,SE,143,3.0,6.0,82,0.00,,,0.00,weatherlink.com 1.10,2013-01-27 13:17:00,
2013-01-27 08:32:00,23.9,20.0,30.36,ESE,107,3.0,6.0,83,0.00,,,0.00,weatherlink.com 1.10,2013-01-27 13:32:00,
2013-01-27 08:47:00,24.4,20.0,30.36,SE,124,3.0,6.0,83,0.00,,,0.00,weatherlink.com 1.10,2013-01-27 13:47:00,
2013-01-27 09:02:00,25.1,21.0,30.36,SSE,151,2.0,8.0,83,0.00,,,0.00,weatherlink.com 1.10,2013-01-27 14:02:00,
2013-01-27 09:17:00,25.7,21.0,30.36,South,170,2.0,6.0,82,0.00,,,0.00,weatherlink.com 1.10,2013-01-27 14:17:00,
2013-01-27 09:33:00,26.5,21.0,30.35,SE,139,2.0,6.0,81,0.00,,,0.00,weatherlink.com 1.10,2013-01-27 14:33:00,
2013-01-27 09:47:00,27.1,22.0,30.35,SSE,160,4.0,6.0,81,0.00,,,0.00,weatherlink.com 1.10,2013-01-27 14:47:00,
2013-01-27 10:02:00,27.6,23.0,30.34,SE,136,7.0,8.0,81,0.00,,,0.00,weatherlink.com 1.10,2013-01-27 15:02:00,
2013-01-27 10:17:00,28.5,23.0,30.36,SE,132,2.0,8.0,80,0.00,,,0.00,weatherlink.com 1.10,2013-01-27 15:17:00,
2013-01-27 10:32:00,28.8,23.0,30.36,SE,142,4.0,7.0,78,0.00,,,0.00,weatherlink.com 1.10,2013-01-27 15:32:00,
2013-01-27 10:47:00,29.2,23.0,30.35,SSE,158,5.0,7.0,78,0.00,,,0.00,weatherlink.com 1.10,2013-01-27 15:47:00,
2013-01-27 11:02:00,30.0,24.0,30.35,SE,136,4.0,9.0,77,0.00,,,0.00,weatherlink.com 1.10,2013-01-27 16:02:00,
2013-01-27 11:17:00,31.0,24.0,30.34,SE,128,3.0,10.0,75,0.00,,,0.00,weatherlink.com 1.10,2013-01-27 16:17:00,
2013-01-27 11:33:00,32.2,24.0,30.34,South,180,7.0,9.0,73,0.00,,,0.00,weatherlink.com 1.10,2013-01-27 16:33:00,
2013-01-27 11:48:00,32.9,24.0,30.34,South,173,4.0,10.0,70,0.00,,,0.00,weatherlink.com 1.10,2013-01-27 16:48:00,
2013-01-27 12:03:00,33.2,24.0,30.34,SE,136,3.0,10.0,69,0.00,,,0.00,weatherlink.com 1.10,2013-01-27 17:03:00,
2013-01-27 12:18:00,33.4,24.0,30.33,SE,136,3.0,7.0,68,0.00,,,0.00,weatherlink.com 1.10,2013-01-27 17:18:00,
2013-01-27 12:33:00,33.7,24.0,30.31,SSE,165,3.0,7.0,67,0.00,,,0.00,weatherlink.com 1.10,2013-01-27 17:33:00,
2013-01-27 12:48:00,34.0,24.0,30.30,ESE,122,1.0,6.0,67,0.00,,,0.00,weatherlink.com 1.10,2013-01-27 17:48:00,
2013-01-27 13:03:00,34.1,24.0,30.30,SE,146,3.0,7.0,66,0.00,,,0.00,weatherlink.com 1.10,2013-01-27 18:03:00,
2013-01-27 13:18:00,34.3,25.0,30.29,SSW,200,2.0,4.0,68,0.00,,,0.00,weatherlink.com 1.10,2013-01-27 18:18:00,
2013-01-27 13:33:00,34.4,24.0,30.29,SSW,200,4.0,7.0,67,0.00,,,0.00,weatherlink.com 1.10,2013-01-27 18:33:00,
2013-01-27 13:48:00,35.0,25.0,30.27,ESE,120,1.0,7.0,67,0.00,,,0.00,weatherlink.com 1.10,2013-01-27 18:48:00,
2013-01-27 14:03:00,35.3,25.0,30.26,South,169,4.0,7.0,66,0.00,,,0.00,weatherlink.com 1.10,2013-01-27 19:03:00,
2013-01-27 14:18:00,36.0,25.0,30.24,SSE,152,4.0,8.0,65,0.00,,,0.00,weatherlink.com 1.10,2013-01-27 19:18:00,
2013-01-27 14:33:00,37.0,25.0,30.23,SSW,201,2.0,8.0,63,0.00,,,0.00,weatherlink.com 1.10,2013-01-27 19:33:00,
2013-01-27 14:48:00,36.9,25.0,30.22,SSE,150,4.0,12.0,62,0.00,,,0.00,weatherlink.com 1.10,2013-01-27 19:48:00,
2013-01-27 15:03:00,37.0,25.0,30.22,SSE,150,3.0,6.0,63,0.00,,,0.00,weatherlink.com 1.10,2013-01-27 20:03:00,
2013-01-27 15:18:00,36.8,25.0,30.21,South,191,2.0,7.0,63,0.00,,,0.00,weatherlink.com 1.10,2013-01-27 20:18:00,
2013-01-27 15:33:00,36.8,25.0,30.21,ESE,121,3.0,7.0,63,0.00,,,0.00,weatherlink.com 1.10,2013-01-27 20:33:00,
2013-01-27 15:48:00,37.0,25.0,30.20,South,174,2.0,6.0,63,0.00,,,0.00,weatherlink.com 1.10,2013-01-27 20:48:00,
2013-01-27 16:03:00,37.1,26.0,30.20,SE,142,1.0,6.0,64,0.00,,,0.00,weatherlink.com 1.10,2013-01-27 21:03:00,
2013-01-27 16:18:00,37.1,26.0,30.19,SSE,166,4.0,7.0,64,0.00,,,0.00,weatherlink.com 1.10,2013-01-27 21:18:00,
2013-01-27 16:33:00,37.1,27.0,30.19,SSW,200,3.0,5.0,68,0.00,,,0.00,weatherlink.com 1.10,2013-01-27 21:33:00,
2013-01-27 16:48:00,36.4,29.0,30.19,SSE,148,4.0,5.0,73,0.00,,,0.00,weatherlink.com 1.10,2013-01-27 21:48:00,
2013-01-27 17:03:00,35.8,29.0,30.19,SSE,160,3.0,6.0,76,0.00,,,0.00,weatherlink.com 1.10,2013-01-27 22:03:00,
2013-01-27 17:18:00,35.6,29.0,30.18,SSE,150,2.0,8.0,78,0.00,,,0.00,weatherlink.com 1.10,2013-01-27 22:18:00,
2013-01-27 17:33:00,35.2,30.0,30.18,SSW,192,3.0,9.0,81,0.01,,,0.01,weatherlink.com 1.10,2013-01-27 22:33:00,
2013-01-27 17:48:00,34.7,31.0,30.17,SSE,147,2.0,8.0,85,0.03,,,0.03,weatherlink.com 1.10,2013-01-27 22:48:00,
2013-01-27 18:03:00,34.3,31.0,30.16,SSW,198,4.0,7.0,88,0.05,,,0.05,weatherlink.com 1.10,2013-01-27 23:03:00,
2013-01-27 18:18:00,34.3,31.0,30.17,SE,142,3.0,9.0,89,0.05,,,0.05,weatherlink.com 1.10,2013-01-27 23:18:00,
2013-01-27 18:33:00,34.4,32.0,30.17,SSE,159,2.0,12.0,90,0.05,,,0.06,weatherlink.com 1.10,2013-01-27 23:33:00,
2013-01-27 18:48:00,34.4,32.0,30.17,South,172,3.0,8.0,90,0.03,,,0.06,weatherlink.com 1.10,2013-01-27 23:48:00,
2013-01-27 19:03:00,34.4,32.0,30.17,South,172,5.0,7.0,91,0.02,,,0.07,weatherlink.com 1.10,2013-01-28 00:03:00,
2013-01-27 19:19:00,34.5,32.0,30.17,SSW,205,2.0,8.0,91,0.03,,,0.08,weatherlink.com 1.10,2013-01-28 00:19:00,
2013-01-27 19:34:00,34.6,33.0,30.16,SSE,158,5.0,7.0,92,0.03,,,0.09,weatherlink.com 1.10,2013-01-28 00:34:00,
2013-01-27 19:49:00,34.8,33.0,30.16,SSE,156,3.0,7.0,93,0.05,,,0.11,weatherlink.com 1.10,2013-01-28 00:49:00,
2013-01-27 20:04:00,34.9,33.0,30.15,SSE,165,1.0,8.0,93,0.05,,,0.12,weatherlink.com 1.10,2013-01-28 01:04:00,
2013-01-27 20:19:00,35.0,33.0,30.15,SSW,204,4.0,7.0,93,0.04,,,0.12,weatherlink.com 1.10,2013-01-28 01:19:00,
2013-01-27 20:34:00,35.2,33.0,30.14,SSE,160,1.0,5.0,93,0.04,,,0.13,weatherlink.com 1.10,2013-01-28 01:34:00,
2013-01-27 20:49:00,35.6,34.0,30.14,South,172,4.0,7.0,94,0.03,,,0.14,weatherlink.com 1.10,2013-01-28 01:49:00,
2013-01-27 21:04:00,35.9,34.0,30.13,South,187,3.0,7.0,94,0.02,,,0.14,weatherlink.com 1.10,2013-01-28 02:04:00,
2013-01-27 21:19:00,36.3,35.0,30.13,SSW,205,5.0,8.0,94,0.02,,,0.15,weatherlink.com 1.10,2013-01-28 02:19:00,
2013-01-27 21:34:00,36.5,35.0,30.12,SSE,165,4.0,9.0,94,0.05,,,0.18,weatherlink.com 1.10,2013-01-28 02:34:00,
2013-01-27 21:49:00,37.0,36.0,30.11,SSW,203,3.0,8.0,95,0.05,,,0.19,weatherlink.com 1.10,2013-01-28 02:49:00,
2013-01-27 22:04:00,37.2,36.0,30.11,South,187,5.0,8.0,95,0.05,,,0.19,weatherlink.com 1.10,2013-01-28 03:04:00,
2013-01-27 22:19:00,37.5,36.0,30.10,South,177,3.0,6.0,95,0.04,,,0.20,weatherlink.com 1.10,2013-01-28 03:19:00,
2013-01-27 22:34:00,37.8,37.0,30.09,SSE,162,3.0,5.0,95,0.02,,,0.20,weatherlink.com 1.10,2013-01-28 03:34:00,
2013-01-27 22:49:00,38.4,37.0,30.08,SSE,156,3.0,4.0,95,0.01,,,0.20,weatherlink.com 1.10,2013-01-28 03:49:00,
2013-01-27 23:04:00,38.7,37.0,30.07,SE,135,3.0,6.0,95,0.01,,,0.20,weatherlink.com 1.10,2013-01-28 04:04:00,
2013-01-27 23:19:00,39.5,39.0,30.07,SSW,194,5.0,7.0,96,0.00,,,0.20,weatherlink.com 1.10,2013-01-28 04:19:00,
2013-01-27 23:34:00,40.6,40.0,30.07,SE,129,5.0,9.0,96,0.01,,,0.21,weatherlink.com 1.10,2013-01-28 04:34:00,
2013-01-27 23:49:00,41.3,40.0,30.08,SSE,147,2.0,9.0,96,0.01,,,0.21,weatherlink.com 1.10,2013-01-28 04:49:00,